createdAt,value
2018-03-29T00:01:01.210Z,9.99
2018-03-29T00:03:34.212Z,9.93
2018-03-29T00:06:06.733Z,9.87
2018-03-29T00:08:39.851Z,9.81
2018-03-29T00:11:13.033Z,9.79
2018-03-29T00:13:46.417Z,9.73
2018-03-29T00:16:19.703Z,9.71
2018-03-29T00:18:52.799Z,9.69
2018-03-29T00:21:25.541Z,9.60
2018-03-29T00:23:59.737Z,9.55
2018-03-29T00:26:34.013Z,9.48
2018-03-29T00:29:07.018Z,9.41
2018-03-29T00:31:40.076Z,9.34
2018-03-29T00:34:12.172Z,9.27
2018-03-29T00:36:44.755Z,9.19
2018-03-29T00:39:16.675Z,9.10
2018-03-29T00:41:49.332Z,9.03
2018-03-29T00:44:22.016Z,8.95
2018-03-29T00:46:57.132Z,8.88
2018-03-29T00:49:31.435Z,8.84
2018-03-29T00:52:05.820Z,8.77
2018-03-29T00:54:38.097Z,8.73
2018-03-29T00:57:11.237Z,8.66
2018-03-29T00:59:45.926Z,8.61
2018-03-29T01:02:20.258Z,8.53
2018-03-29T01:04:52.936Z,8.42
2018-03-29T01:07:27.732Z,8.28
2018-03-29T01:10:02.614Z,8.18
2018-03-29T01:12:37.578Z,8.10
2018-03-29T01:15:11.299Z,8.06
2018-03-29T01:17:43.849Z,8.08
2018-03-29T01:20:17.814Z,8.06
2018-03-29T01:22:53.476Z,8.06
2018-03-29T01:25:28.933Z,8.05
2018-03-29T01:28:02.261Z,8.03
2018-03-29T01:30:36.584Z,8.01
2018-03-29T01:33:09.403Z,7.99
2018-03-29T01:35:42.655Z,7.97
2018-03-29T01:38:15.972Z,7.99
2018-03-29T01:40:49.110Z,7.99
2018-03-29T01:43:22.215Z,8.00
2018-03-29T01:45:56.119Z,7.99
2018-03-29T01:48:29.614Z,7.98
2018-03-29T01:51:03.174Z,7.97
2018-03-29T01:53:37.992Z,7.97
2018-03-29T01:56:13.330Z,8.00
2018-03-29T01:58:48.172Z,8.00
2018-03-29T02:01:21.472Z,8.00
2018-03-29T02:03:54.241Z,8.02
2018-03-29T02:06:26.336Z,8.01
2018-03-29T02:09:00.150Z,8.00
2018-03-29T02:11:34.234Z,7.98
2018-03-29T02:14:07.224Z,7.94
2018-03-29T02:16:41.350Z,7.93
2018-03-29T02:19:15.926Z,7.90
2018-03-29T02:21:49.213Z,7.91
2018-03-29T02:24:24.690Z,7.89
2018-03-29T02:26:57.608Z,7.90
2018-03-29T02:29:31.456Z,7.91
2018-03-29T02:32:06.221Z,7.87
2018-03-29T02:34:39.579Z,7.80
2018-03-29T02:37:13.496Z,7.76
2018-03-29T02:39:48.016Z,7.69
2018-03-29T02:42:22.396Z,7.63
2018-03-29T02:44:54.878Z,7.58
2018-03-29T02:47:27.539Z,7.52
2018-03-29T02:50:00.120Z,7.45
2018-03-29T02:52:33.079Z,7.37
2018-03-29T02:55:05.639Z,7.27
2018-03-29T02:57:39.461Z,7.16
2018-03-29T03:00:13.160Z,7.09
2018-03-29T03:02:46.253Z,7.00
2018-03-29T03:05:20.004Z,6.91
2018-03-29T03:07:54.095Z,6.80
2018-03-29T03:10:28.779Z,6.71
2018-03-29T03:13:03.885Z,6.62
2018-03-29T03:15:37.042Z,6.49
2018-03-29T03:18:10.891Z,6.43
2018-03-29T03:20:46.217Z,6.41
2018-03-29T03:23:19.925Z,6.40
2018-03-29T03:25:54.218Z,6.38
2018-03-29T03:28:27.044Z,6.36
2018-03-29T03:30:59.206Z,6.39
2018-03-29T03:33:31.982Z,6.37
2018-03-29T03:36:06.881Z,6.38
2018-03-29T03:38:40.836Z,6.35
2018-03-29T03:41:14.355Z,6.33
2018-03-29T03:43:48.002Z,6.31
2018-03-29T03:46:22.553Z,6.25
2018-03-29T03:48:55.348Z,6.25
2018-03-29T03:51:28.356Z,6.24
2018-03-29T03:54:02.584Z,6.25
2018-03-29T03:56:35.430Z,6.25
2018-03-29T03:59:12.806Z,6.28
2018-03-29T04:01:45.962Z,6.26
2018-03-29T04:04:20.902Z,6.23
2018-03-29T04:06:55.752Z,6.22
2018-03-29T04:09:30.838Z,6.21
2018-03-29T04:12:04.352Z,6.24
2018-03-29T04:14:40.398Z,6.24
2018-03-29T04:17:13.018Z,6.22
2018-03-29T04:19:46.158Z,6.17
2018-03-29T04:22:20.275Z,6.13
2018-03-29T04:24:54.337Z,6.07
2018-03-29T04:27:28.418Z,6.08
2018-03-29T04:30:02.851Z,6.08
2018-03-29T04:32:36.393Z,6.06
2018-03-29T04:35:10.488Z,6.06
2018-03-29T04:37:45.138Z,6.05
2018-03-29T04:40:19.559Z,6.04
2018-03-29T04:42:53.160Z,6.05
2018-03-29T04:45:29.696Z,6.07
2018-03-29T04:48:03.899Z,6.10
2018-03-29T04:50:37.740Z,6.13
2018-03-29T04:53:17.300Z,6.15
2018-03-29T04:55:52.394Z,6.15
2018-03-29T04:58:25.258Z,6.12
2018-03-29T05:01:03.820Z,6.08
2018-03-29T05:03:54.515Z,6.04
2018-03-29T05:06:30.589Z,6.02
2018-03-29T05:09:04.716Z,6.01
2018-03-29T05:11:38.116Z,6.03
2018-03-29T05:14:13.396Z,6.04
2018-03-29T05:16:46.999Z,6.08
2018-03-29T05:19:21.063Z,6.08
2018-03-29T05:21:56.438Z,6.08
2018-03-29T05:24:31.402Z,6.05
2018-03-29T05:27:05.602Z,6.04
2018-03-29T05:29:39.995Z,5.98
2018-03-29T05:32:14.435Z,5.96
2018-03-29T05:34:47.320Z,5.97
2018-03-29T05:37:20.734Z,5.98
2018-03-29T05:39:54.614Z,6.03
2018-03-29T05:42:29.117Z,6.07
2018-03-29T05:45:03.682Z,6.10
2018-03-29T05:47:36.034Z,6.15
2018-03-29T05:50:08.957Z,6.20
2018-03-29T05:52:41.957Z,6.27
2018-03-29T05:55:14.881Z,6.35
2018-03-29T05:57:48.957Z,6.41
2018-03-29T06:00:23.712Z,6.45
2018-03-29T06:02:57.153Z,6.56
2018-03-29T06:05:30.636Z,6.62
2018-03-29T06:08:04.196Z,6.73
2018-03-29T06:10:37.985Z,6.82
2018-03-29T06:13:13.195Z,6.91
2018-03-29T06:15:46.719Z,6.98
2018-03-29T06:18:23.852Z,7.05
2018-03-29T06:20:58.886Z,7.09
2018-03-29T06:23:31.536Z,7.14
2018-03-29T06:26:05.118Z,7.16
2018-03-29T06:28:37.229Z,7.14
2018-03-29T06:31:09.221Z,7.14
2018-03-29T06:33:43.236Z,7.18
2018-03-29T06:36:17.616Z,7.23
2018-03-29T06:38:51.716Z,7.31
2018-03-29T06:41:26.296Z,7.37
2018-03-29T06:44:00.395Z,7.41
2018-03-29T06:46:34.267Z,7.49
2018-03-29T06:49:09.750Z,7.54
2018-03-29T06:51:44.797Z,7.56
2018-03-29T06:54:19.498Z,7.59
2018-03-29T06:56:56.036Z,7.59
2018-03-29T06:59:30.866Z,7.61
2018-03-29T07:02:04.840Z,7.65
2018-03-29T07:04:40.221Z,7.68
2018-03-29T07:07:13.895Z,7.69
2018-03-29T07:09:48.814Z,7.70
2018-03-29T07:12:24.718Z,7.76
2018-03-29T07:14:59.286Z,7.80
2018-03-29T07:17:35.562Z,7.83
2018-03-29T07:20:11.087Z,7.86
2018-03-29T07:22:49.039Z,7.91
2018-03-29T07:25:22.460Z,7.98
2018-03-29T07:27:59.976Z,8.09
2018-03-29T07:30:33.024Z,8.19
2018-03-29T07:33:08.223Z,8.26
2018-03-29T07:35:46.897Z,8.34
2018-03-29T07:38:20.789Z,8.41
2018-03-29T07:40:56.603Z,8.47
2018-03-29T07:43:30.701Z,8.53
2018-03-29T07:46:04.984Z,8.56
2018-03-29T07:48:40.253Z,8.68
2018-03-29T07:51:13.927Z,8.84
2018-03-29T07:53:46.772Z,8.94
2018-03-29T07:56:19.999Z,9.02
2018-03-29T07:58:55.598Z,9.04
2018-03-29T08:01:29.881Z,9.13
2018-03-29T08:04:05.363Z,9.17
2018-03-29T08:06:38.646Z,9.29
2018-03-29T08:09:13.083Z,9.31
2018-03-29T08:11:47.297Z,9.19
2018-03-29T08:14:21.917Z,9.18
2018-03-29T08:17:01.659Z,9.17
2018-03-29T08:19:35.243Z,9.14
2018-03-29T08:22:12.781Z,9.10
2018-03-29T08:24:45.855Z,9.06
2018-03-29T08:27:19.626Z,9.02
2018-03-29T08:29:56.016Z,9.00
2018-03-29T08:32:28.684Z,9.01
2018-03-29T08:35:07.762Z,9.10
2018-03-29T08:37:45.060Z,9.23
2018-03-29T08:40:20.059Z,9.23
2018-03-29T08:42:56.237Z,9.23
2018-03-29T08:45:31.645Z,9.21
2018-03-29T08:48:09.544Z,9.28
2018-03-29T08:50:44.022Z,9.47
2018-03-29T08:53:19.667Z,9.63
2018-03-29T08:55:55.405Z,9.78
2018-03-29T08:58:30.310Z,10.13
2018-03-29T09:01:04.524Z,10.49
2018-03-29T09:03:39.260Z,10.63
2018-03-29T09:06:13.426Z,10.65
2018-03-29T09:08:46.679Z,10.66
2018-03-29T09:11:20.243Z,10.61
2018-03-29T09:13:54.582Z,10.54
2018-03-29T09:16:27.807Z,10.55
2018-03-29T09:19:03.486Z,10.56
2018-03-29T09:21:39.507Z,10.53
2018-03-29T09:24:13.325Z,10.36
2018-03-29T09:26:48.066Z,10.28
2018-03-29T09:29:23.025Z,10.35
2018-03-29T09:31:59.791Z,10.32
2018-03-29T09:34:32.624Z,10.37
2018-03-29T09:37:11.316Z,10.36
2018-03-29T09:39:49.886Z,10.36
2018-03-29T09:42:30.559Z,10.35
2018-03-29T09:45:06.287Z,10.39
2018-03-29T09:47:42.304Z,10.41
2018-03-29T09:50:17.220Z,10.41
2018-03-29T09:52:52.791Z,10.40
2018-03-29T09:55:28.564Z,10.36
2018-03-29T09:58:03.771Z,10.28
2018-03-29T10:00:39.564Z,10.35
2018-03-29T10:03:15.622Z,10.62
2018-03-29T10:05:49.881Z,10.94
2018-03-29T10:08:24.800Z,11.24
2018-03-29T10:10:57.884Z,11.55
2018-03-29T10:13:33.563Z,11.67
2018-03-29T10:16:08.422Z,11.67
2018-03-29T10:18:42.123Z,11.77
2018-03-29T10:21:17.058Z,11.73
2018-03-29T10:23:53.885Z,11.69
2018-03-29T10:26:30.362Z,11.79
2018-03-29T10:29:04.803Z,11.86
2018-03-29T10:31:37.644Z,11.89
2018-03-29T10:34:13.399Z,11.93
2018-03-29T10:36:50.241Z,11.96
2018-03-29T10:39:25.459Z,11.98
2018-03-29T10:44:51.537Z,12.11
2018-03-29T10:47:27.861Z,11.89
2018-03-29T10:50:08.195Z,11.77
2018-03-29T10:52:43.552Z,11.67
2018-03-29T10:55:22.655Z,11.61
2018-03-29T10:57:55.042Z,11.54
2018-03-29T11:00:36.307Z,11.47
2018-03-29T11:03:12.844Z,11.56
2018-03-29T11:05:49.044Z,11.62
2018-03-29T11:08:28.865Z,11.69
2018-03-29T11:11:02.468Z,11.88
2018-03-29T11:13:37.143Z,11.96
2018-03-29T11:16:11.423Z,12.01
2018-03-29T11:18:44.719Z,12.15
2018-03-29T11:21:17.512Z,12.16
2018-03-29T11:23:52.486Z,12.11
2018-03-29T11:26:28.067Z,12.04
2018-03-29T11:29:03.418Z,12.04
2018-03-29T11:31:37.477Z,12.06
2018-03-29T11:34:11.522Z,12.19
2018-03-29T11:36:45.165Z,12.23
2018-03-29T11:39:22.522Z,12.20
2018-03-29T11:41:55.204Z,12.17
2018-03-29T11:44:30.323Z,12.11
2018-03-29T11:47:03.560Z,12.15
2018-03-29T11:49:38.780Z,12.22
2018-03-29T11:52:12.526Z,12.23
2018-03-29T11:54:49.374Z,12.26
2018-03-29T11:57:22.301Z,12.24
2018-03-29T11:59:54.740Z,12.16
2018-03-29T12:02:29.825Z,12.10
2018-03-29T12:05:14.502Z,12.30
2018-03-29T12:07:52.604Z,12.71
2018-03-29T12:10:29.859Z,13.17
2018-03-29T12:13:02.822Z,13.37
2018-03-29T12:15:38.581Z,13.55
2018-03-29T12:18:16.098Z,13.73
2018-03-29T12:20:51.402Z,13.85
2018-03-29T12:23:31.814Z,13.91
2018-03-29T12:26:09.048Z,13.96
2018-03-29T12:28:50.805Z,13.98
2018-03-29T12:31:26.338Z,14.08
2018-03-29T12:34:00.046Z,14.08
2018-03-29T12:36:41.568Z,14.06
2018-03-29T12:39:17.106Z,14.21
2018-03-29T12:41:53.461Z,14.17
2018-03-29T12:44:27.783Z,14.22
2018-03-29T12:47:06.775Z,14.43
2018-03-29T12:49:41.795Z,14.59
2018-03-29T12:52:17.505Z,14.74
2018-03-29T12:55:08.085Z,14.87
2018-03-29T12:57:57.973Z,14.96
2018-03-29T13:00:33.592Z,15.02
2018-03-29T13:03:07.939Z,15.05
2018-03-29T13:05:46.731Z,15.01
2018-03-29T13:08:25.310Z,14.78
2018-03-29T13:11:04.935Z,14.63
2018-03-29T13:13:41.638Z,14.57
2018-03-29T13:16:18.840Z,14.43
2018-03-29T13:18:53.739Z,14.44
2018-03-29T13:21:30.845Z,14.59
2018-03-29T13:24:05.501Z,14.71
2018-03-29T13:26:40.854Z,14.62
2018-03-29T13:29:14.658Z,14.49
2018-03-29T13:31:50.001Z,14.18
2018-03-29T13:34:24.162Z,13.91
2018-03-29T13:36:58.045Z,13.98
2018-03-29T13:39:33.241Z,14.14
2018-03-29T13:42:08.182Z,14.08
2018-03-29T13:44:45.003Z,13.94
2018-03-29T13:47:20.014Z,13.76
2018-03-29T13:49:54.383Z,13.56
2018-03-29T13:52:28.123Z,13.39
2018-03-29T13:55:04.057Z,13.18
2018-03-29T13:57:46.932Z,13.02
2018-03-29T14:00:20.357Z,12.95
2018-03-29T14:02:55.892Z,13.02
2018-03-29T14:05:31.429Z,13.07
2018-03-29T14:08:07.504Z,13.05
2018-03-29T14:10:41.419Z,13.02
2018-03-29T14:13:15.164Z,12.93
2018-03-29T14:15:49.244Z,12.70
2018-03-29T14:18:28.099Z,12.60
2018-03-29T14:21:02.472Z,12.60
2018-03-29T14:23:37.136Z,12.60
2018-03-29T14:26:12.159Z,12.68
2018-03-29T14:28:44.444Z,12.67
2018-03-29T14:31:17.760Z,12.52
2018-03-29T14:33:52.759Z,12.35
2018-03-29T14:36:27.076Z,12.23
2018-03-29T14:38:59.300Z,12.15
2018-03-29T14:41:29.700Z,12.17
2018-03-29T14:43:59.160Z,12.36
2018-03-29T14:46:38.604Z,12.51
2018-03-29T14:49:14.344Z,12.63
2018-03-29T14:51:48.586Z,12.65
2018-03-29T14:54:25.923Z,12.62
2018-03-29T14:57:00.706Z,12.68
2018-03-29T14:59:44.400Z,12.83
2018-03-29T15:02:20.278Z,12.99
2018-03-29T15:04:55.664Z,12.98
2018-03-29T15:07:30.680Z,12.83
2018-03-29T15:10:07.301Z,12.74
2018-03-29T15:12:40.495Z,12.62
2018-03-29T15:15:14.043Z,12.54
2018-03-29T15:17:49.518Z,12.44
2018-03-29T15:20:24.938Z,12.40
2018-03-29T15:23:01.633Z,12.36
2018-03-29T15:25:38.822Z,12.35
2018-03-29T15:28:20.017Z,12.35
2018-03-29T15:31:03.820Z,12.39
2018-03-29T15:33:37.425Z,12.45
2018-03-29T15:36:11.890Z,12.51
2018-03-29T15:38:46.860Z,12.56
2018-03-29T15:41:21.819Z,12.59
2018-03-29T15:43:59.029Z,12.57
2018-03-29T15:46:33.401Z,12.55
2018-03-29T15:49:05.825Z,12.46
2018-03-29T15:51:41.420Z,12.39
2018-03-29T15:54:20.356Z,12.35
2018-03-29T15:57:01.073Z,12.33
2018-03-29T15:59:39.712Z,12.30
2018-03-29T16:02:15.529Z,12.18
2018-03-29T16:04:50.659Z,12.06
2018-03-29T16:10:33.193Z,12.00
2018-03-29T16:13:10.716Z,11.99
2018-03-29T16:15:46.453Z,11.99
2018-03-29T16:18:23.035Z,11.98
2018-03-29T16:20:57.115Z,11.96
2018-03-29T16:23:31.815Z,11.95
2018-03-29T16:26:10.297Z,11.92
2018-03-29T17:26:01.572Z,10.80
2018-03-29T17:28:39.677Z,10.74
2018-03-29T17:31:14.036Z,10.69
2018-03-29T17:33:46.957Z,10.66
2018-03-29T17:36:27.057Z,10.61
2018-03-29T17:39:01.350Z,10.59
2018-03-29T17:41:36.812Z,10.57
2018-03-29T17:44:11.334Z,10.54
2018-03-29T17:46:44.983Z,10.50
2018-03-29T17:49:19.132Z,10.46
2018-03-29T17:51:53.019Z,10.41
2018-03-29T17:54:30.640Z,10.35
2018-03-29T17:57:10.356Z,10.29
2018-03-29T17:59:44.965Z,10.20
2018-03-29T18:02:21.416Z,10.11
2018-03-29T18:05:01.015Z,10.03
2018-03-29T18:07:34.255Z,9.92
2018-03-29T18:10:07.916Z,9.81
2018-03-29T18:12:44.570Z,9.70
